sensor_id;sensor_type;location;lat;lon;timestamp;temperature;humidity
38241;DHT22;24037;49.536;8.500;2023-03-24T00:01:25;12.50;1.00
38241;DHT22;24037;49.536;8.500;2023-03-24T00:03:51;12.50;1.00
38241;DHT22;24037;49.536;8.500;2023-03-24T00:06:17;12.50;1.00
38241;DHT22;24037;49.536;8.500;2023-03-24T00:08:43;12.50;1.00
38241;DHT22;24037;49.536;8.500;2023-03-24T00:11:13;12.40;1.00
38241;DHT22;24037;49.536;8.500;2023-03-24T00:13:40;12.40;1.00
38241;DHT22;24037;49.536;8.500;2023-03-24T00:16:08;12.50;1.00
38241;DHT22;24037;49.536;8.500;2023-03-24T00:18:36;12.50;1.00
38241;DHT22;24037;49.536;8.500;2023-03-24T00:21:05;12.50;1.00
38241;DHT22;24037;49.536;8.500;2023-03-24T00:23:33;12.40;1.00
38241;DHT22;24037;49.536;8.500;2023-03-24T00:26:08;12.40;1.00
38241;DHT22;24037;49.536;8.500;2023-03-24T00:28:37;12.30;1.00
38241;DHT22;24037;49.536;8.500;2023-03-24T00:31:05;12.30;1.00
38241;DHT22;24037;49.536;8.500;2023-03-24T00:33:31;12.30;1.00
38241;DHT22;24037;49.536;8.500;2023-03-24T00:36:02;12.30;1.00
38241;DHT22;24037;49.536;8.500;2023-03-24T00:38:28;12.30;1.00
38241;DHT22;24037;49.536;8.500;2023-03-24T00:40:54;12.20;1.00
38241;DHT22;24037;49.536;8.500;2023-03-24T00:43:21;12.10;1.00
38241;DHT22;24037;49.536;8.500;2023-03-24T00:45:47;12.10;1.00
38241;DHT22;24037;49.536;8.500;2023-03-24T00:48:15;12.10;1.00
38241;DHT22;24037;49.536;8.500;2023-03-24T00:50:47;12.10;1.00
38241;DHT22;24037;49.536;8.500;2023-03-24T00:53:14;12.10;1.00
38241;DHT22;24037;49.536;8.500;2023-03-24T00:55:45;12.00;1.00
38241;DHT22;24037;49.536;8.500;2023-03-24T00:58:14;12.00;1.00
38241;DHT22;24037;49.536;8.500;2023-03-24T01:00:46;12.00;1.00
38241;DHT22;24037;49.536;8.500;2023-03-24T01:03:13;12.00;1.00
38241;DHT22;24037;49.536;8.500;2023-03-24T01:05:40;12.00;1.00
38241;DHT22;24037;49.536;8.500;2023-03-24T01:08:07;12.10;1.00
38241;DHT22;24037;49.536;8.500;2023-03-24T01:10:36;12.10;1.00
38241;DHT22;24037;49.536;8.500;2023-03-24T01:13:16;12.20;1.00
38241;DHT22;24037;49.536;8.500;2023-03-24T01:15:43;12.20;1.00
38241;DHT22;24037;49.536;8.500;2023-03-24T01:18:11;12.20;1.00
38241;DHT22;24037;49.536;8.500;2023-03-24T01:20:39;12.20;1.00
38241;DHT22;24037;49.536;8.500;2023-03-24T01:23:06;12.20;1.00
38241;DHT22;24037;49.536;8.500;2023-03-24T01:25:35;12.20;1.00
38241;DHT22;24037;49.536;8.500;2023-03-24T01:28:02;12.10;1.00
38241;DHT22;24037;49.536;8.500;2023-03-24T01:30:30;12.10;1.00
38241;DHT22;24037;49.536;8.500;2023-03-24T01:32:56;12.10;1.00
38241;DHT22;24037;49.536;8.500;2023-03-24T01:35:24;12.10;1.00
38241;DHT22;24037;49.536;8.500;2023-03-24T01:37:51;12.00;1.00
38241;DHT22;24037;49.536;8.500;2023-03-24T01:40:27;12.00;1.00
38241;DHT22;24037;49.536;8.500;2023-03-24T01:42:53;12.00;1.00
38241;DHT22;24037;49.536;8.500;2023-03-24T01:46:00;12.10;1.00
38241;DHT22;24037;49.536;8.500;2023-03-24T01:53:46;12.10;1.00
38241;DHT22;24037;49.536;8.500;2023-03-24T01:56:16;12.20;1.00
38241;DHT22;24037;49.536;8.500;2023-03-24T01:58:47;12.10;1.00
38241;DHT22;24037;49.536;8.500;2023-03-24T02:01:19;12.10;1.00
38241;DHT22;24037;49.536;8.500;2023-03-24T02:04:06;12.20;1.00
38241;DHT22;24037;49.536;8.500;2023-03-24T02:06:38;12.10;1.00
38241;DHT22;24037;49.536;8.500;2023-03-24T02:09:08;12.10;1.00
38241;DHT22;24037;49.536;8.500;2023-03-24T02:11:37;12.10;1.00
38241;DHT22;24037;49.536;8.500;2023-03-24T02:14:06;12.20;1.00
38241;DHT22;24037;49.536;8.500;2023-03-24T02:37:25;12.60;1.00
38241;DHT22;24037;49.536;8.500;2023-03-24T02:40:05;12.70;1.00
38241;DHT22;24037;49.536;8.500;2023-03-24T02:48:40;13.00;1.00
38241;DHT22;24037;49.536;8.500;2023-03-24T02:51:19;13.00;1.00
38241;DHT22;24037;49.536;8.500;2023-03-24T02:59:45;13.00;1.00
38241;DHT22;24037;49.536;8.500;2023-03-24T03:02:46;13.00;1.00
38241;DHT22;24037;49.536;8.500;2023-03-24T03:05:21;13.10;1.00
38241;DHT22;24037;49.536;8.500;2023-03-24T03:07:49;13.10;1.00
38241;DHT22;24037;49.536;8.500;2023-03-24T03:10:24;13.20;1.00
38241;DHT22;24037;49.536;8.500;2023-03-24T03:12:55;13.40;99.90
38241;DHT22;24037;49.536;8.500;2023-03-24T03:15:27;13.50;99.90
38241;DHT22;24037;49.536;8.500;2023-03-24T03:18:06;13.50;99.90
38241;DHT22;24037;49.536;8.500;2023-03-24T03:20:38;13.50;99.90
38241;DHT22;24037;49.536;8.500;2023-03-24T03:23:12;13.50;99.90
38241;DHT22;24037;49.536;8.500;2023-03-24T03:25:43;13.50;99.90
38241;DHT22;24037;49.536;8.500;2023-03-24T03:28:18;13.50;99.90
38241;DHT22;24037;49.536;8.500;2023-03-24T03:30:52;13.50;99.90
38241;DHT22;24037;49.536;8.500;2023-03-24T03:33:24;13.60;99.90
38241;DHT22;24037;49.536;8.500;2023-03-24T03:38:50;13.50;99.90
38241;DHT22;24037;49.536;8.500;2023-03-24T03:41:17;13.60;99.90
38241;DHT22;24037;49.536;8.500;2023-03-24T03:43:46;13.60;99.90
38241;DHT22;24037;49.536;8.500;2023-03-24T03:46:13;13.60;99.90
38241;DHT22;24037;49.536;8.500;2023-03-24T03:48:40;13.60;99.90
38241;DHT22;24037;49.536;8.500;2023-03-24T03:51:08;13.70;99.90
38241;DHT22;24037;49.536;8.500;2023-03-24T03:53:45;13.70;99.90
38241;DHT22;24037;49.536;8.500;2023-03-24T03:56:14;13.80;99.90
38241;DHT22;24037;49.536;8.500;2023-03-24T03:58:55;14.00;99.90
38241;DHT22;24037;49.536;8.500;2023-03-24T04:01:24;14.10;99.90
38241;DHT22;24037;49.536;8.500;2023-03-24T04:04:37;14.20;99.90
38241;DHT22;24037;49.536;8.500;2023-03-24T04:07:33;14.20;99.90
38241;DHT22;24037;49.536;8.500;2023-03-24T04:16:20;14.40;99.90
38241;DHT22;24037;49.536;8.500;2023-03-24T04:19:12;14.40;99.90
38241;DHT22;24037;49.536;8.500;2023-03-24T04:22:06;14.40;99.90
38241;DHT22;24037;49.536;8.500;2023-03-24T04:30:13;14.40;99.90
38241;DHT22;24037;49.536;8.500;2023-03-24T04:32:54;14.40;99.90
38241;DHT22;24037;49.536;8.500;2023-03-24T04:35:35;14.40;99.90
38241;DHT22;24037;49.536;8.500;2023-03-24T04:38:32;14.30;99.90
38241;DHT22;24037;49.536;8.500;2023-03-24T04:41:25;14.40;99.90
38241;DHT22;24037;49.536;8.500;2023-03-24T04:44:04;14.30;1.00
38241;DHT22;24037;49.536;8.500;2023-03-24T04:46:37;14.30;1.00
38241;DHT22;24037;49.536;8.500;2023-03-24T04:49:16;14.20;1.00
38241;DHT22;24037;49.536;8.500;2023-03-24T04:51:44;14.20;1.00
38241;DHT22;24037;49.536;8.500;2023-03-24T04:54:21;14.20;1.00
38241;DHT22;24037;49.536;8.500;2023-03-24T04:57:00;14.10;1.00
38241;DHT22;24037;49.536;8.500;2023-03-24T04:59:29;14.10;1.00
38241;DHT22;24037;49.536;8.500;2023-03-24T05:01:59;14.10;1.00
38241;DHT22;24037;49.536;8.500;2023-03-24T05:04:27;14.00;1.00
38241;DHT22;24037;49.536;8.500;2023-03-24T05:06:54;13.90;1.00
38241;DHT22;24037;49.536;8.500;2023-03-24T05:09:24;13.80;1.00
38241;DHT22;24037;49.536;8.500;2023-03-24T05:11:51;13.70;1.00
38241;DHT22;24037;49.536;8.500;2023-03-24T05:14:18;13.60;1.00
38241;DHT22;24037;49.536;8.500;2023-03-24T05:16:45;13.50;1.00
38241;DHT22;24037;49.536;8.500;2023-03-24T05:19:13;13.50;1.00
38241;DHT22;24037;49.536;8.500;2023-03-24T05:21:43;13.40;1.00
38241;DHT22;24037;49.536;8.500;2023-03-24T05:24:09;13.30;1.00
38241;DHT22;24037;49.536;8.500;2023-03-24T05:26:37;13.20;1.00
38241;DHT22;24037;49.536;8.500;2023-03-24T05:29:12;13.20;1.00
38241;DHT22;24037;49.536;8.500;2023-03-24T05:31:39;13.10;1.00
38241;DHT22;24037;49.536;8.500;2023-03-24T05:34:08;13.00;1.00
38241;DHT22;24037;49.536;8.500;2023-03-24T05:36:46;13.10;1.00
38241;DHT22;24037;49.536;8.500;2023-03-24T05:39:14;13.00;1.00
38241;DHT22;24037;49.536;8.500;2023-03-24T05:41:49;13.10;1.00
38241;DHT22;24037;49.536;8.500;2023-03-24T05:44:15;13.10;1.00
38241;DHT22;24037;49.536;8.500;2023-03-24T05:46:51;13.10;1.00
38241;DHT22;24037;49.536;8.500;2023-03-24T05:49:17;13.10;1.00
38241;DHT22;24037;49.536;8.500;2023-03-24T05:51:43;13.10;1.00
38241;DHT22;24037;49.536;8.500;2023-03-24T05:54:10;13.10;1.00
38241;DHT22;24037;49.536;8.500;2023-03-24T05:56:41;13.10;1.00
38241;DHT22;24037;49.536;8.500;2023-03-24T05:59:26;13.10;1.00
38241;DHT22;24037;49.536;8.500;2023-03-24T06:02:07;13.00;1.00
38241;DHT22;24037;49.536;8.500;2023-03-24T06:04:59;13.00;1.00
38241;DHT22;24037;49.536;8.500;2023-03-24T06:07:27;13.10;1.00
38241;DHT22;24037;49.536;8.500;2023-03-24T06:09:57;13.10;1.00
38241;DHT22;24037;49.536;8.500;2023-03-24T06:12:32;13.20;1.00
38241;DHT22;24037;49.536;8.500;2023-03-24T06:15:01;13.20;1.00
38241;DHT22;24037;49.536;8.500;2023-03-24T06:17:29;13.20;1.00
38241;DHT22;24037;49.536;8.500;2023-03-24T06:19:57;13.20;1.00
38241;DHT22;24037;49.536;8.500;2023-03-24T06:22:49;13.20;1.00
38241;DHT22;24037;49.536;8.500;2023-03-24T06:25:20;13.20;1.00
38241;DHT22;24037;49.536;8.500;2023-03-24T06:28:02;13.20;1.00
38241;DHT22;24037;49.536;8.500;2023-03-24T06:30:32;13.20;1.00
38241;DHT22;24037;49.536;8.500;2023-03-24T06:32:59;13.20;1.00
38241;DHT22;24037;49.536;8.500;2023-03-24T06:35:25;13.20;1.00
38241;DHT22;24037;49.536;8.500;2023-03-24T06:38:11;13.20;1.00
38241;DHT22;24037;49.536;8.500;2023-03-24T06:40:39;13.20;1.00
38241;DHT22;24037;49.536;8.500;2023-03-24T06:43:06;13.20;1.00
38241;DHT22;24037;49.536;8.500;2023-03-24T06:45:36;13.30;1.00
38241;DHT22;24037;49.536;8.500;2023-03-24T06:48:05;13.30;1.00
38241;DHT22;24037;49.536;8.500;2023-03-24T06:50:32;13.30;1.00
38241;DHT22;24037;49.536;8.500;2023-03-24T06:53:04;13.20;1.00
38241;DHT22;24037;49.536;8.500;2023-03-24T06:55:35;13.20;1.00
38241;DHT22;24037;49.536;8.500;2023-03-24T06:58:02;13.20;1.00
38241;DHT22;24037;49.536;8.500;2023-03-24T07:00:54;13.20;1.00
38241;DHT22;24037;49.536;8.500;2023-03-24T07:03:26;13.20;1.00
38241;DHT22;24037;49.536;8.500;2023-03-24T07:06:21;13.20;1.00
38241;DHT22;24037;49.536;8.500;2023-03-24T07:08:52;13.20;1.00
38241;DHT22;24037;49.536;8.500;2023-03-24T07:11:20;13.20;1.00
38241;DHT22;24037;49.536;8.500;2023-03-24T07:13:52;13.30;1.00
38241;DHT22;24037;49.536;8.500;2023-03-24T07:16:20;13.40;1.00
38241;DHT22;24037;49.536;8.500;2023-03-24T07:18:53;13.50;1.00
38241;DHT22;24037;49.536;8.500;2023-03-24T07:21:19;13.40;1.00
38241;DHT22;24037;49.536;8.500;2023-03-24T07:23:49;13.40;1.00
38241;DHT22;24037;49.536;8.500;2023-03-24T07:26:17;13.50;1.00
38241;DHT22;24037;49.536;8.500;2023-03-24T07:28:45;13.50;1.00
38241;DHT22;24037;49.536;8.500;2023-03-24T07:31:15;13.50;1.00
38241;DHT22;24037;49.536;8.500;2023-03-24T07:33:42;13.60;1.00
38241;DHT22;24037;49.536;8.500;2023-03-24T07:36:09;13.60;1.00
38241;DHT22;24037;49.536;8.500;2023-03-24T07:38:38;13.70;1.00
38241;DHT22;24037;49.536;8.500;2023-03-24T07:41:08;13.70;1.00
38241;DHT22;24037;49.536;8.500;2023-03-24T07:43:38;13.70;1.00
38241;DHT22;24037;49.536;8.500;2023-03-24T07:46:05;13.70;1.00
38241;DHT22;24037;49.536;8.500;2023-03-24T07:48:35;13.70;1.00
38241;DHT22;24037;49.536;8.500;2023-03-24T07:51:02;13.60;1.00
38241;DHT22;24037;49.536;8.500;2023-03-24T07:53:47;13.60;1.00
38241;DHT22;24037;49.536;8.500;2023-03-24T07:56:21;13.60;1.00
38241;DHT22;24037;49.536;8.500;2023-03-24T07:58:53;13.50;1.00
38241;DHT22;24037;49.536;8.500;2023-03-24T08:01:28;13.50;1.00
38241;DHT22;24037;49.536;8.500;2023-03-24T08:03:58;13.50;1.00
38241;DHT22;24037;49.536;8.500;2023-03-24T08:06:43;13.50;1.00
38241;DHT22;24037;49.536;8.500;2023-03-24T08:09:10;13.50;1.00
38241;DHT22;24037;49.536;8.500;2023-03-24T08:11:37;13.50;1.00
38241;DHT22;24037;49.536;8.500;2023-03-24T08:14:04;13.50;1.00
38241;DHT22;24037;49.536;8.500;2023-03-24T08:16:30;13.60;1.00
38241;DHT22;24037;49.536;8.500;2023-03-24T08:18:56;13.60;1.00
38241;DHT22;24037;49.536;8.500;2023-03-24T08:21:24;13.50;1.00
38241;DHT22;24037;49.536;8.500;2023-03-24T08:23:50;13.60;1.00
38241;DHT22;24037;49.536;8.500;2023-03-24T08:26:17;13.60;1.00
38241;DHT22;24037;49.536;8.500;2023-03-24T08:28:47;13.50;1.00
38241;DHT22;24037;49.536;8.500;2023-03-24T08:31:14;13.50;1.00
38241;DHT22;24037;49.536;8.500;2023-03-24T08:33:40;13.50;1.00
38241;DHT22;24037;49.536;8.500;2023-03-24T08:36:06;13.60;1.00
38241;DHT22;24037;49.536;8.500;2023-03-24T08:38:33;13.60;1.00
38241;DHT22;24037;49.536;8.500;2023-03-24T08:41:04;13.50;1.00
38241;DHT22;24037;49.536;8.500;2023-03-24T08:43:34;13.60;1.00
38241;DHT22;24037;49.536;8.500;2023-03-24T08:46:01;13.60;1.00
38241;DHT22;24037;49.536;8.500;2023-03-24T08:48:28;13.60;1.00
38241;DHT22;24037;49.536;8.500;2023-03-24T08:50:55;13.60;1.00
38241;DHT22;24037;49.536;8.500;2023-03-24T08:53:21;13.60;1.00
38241;DHT22;24037;49.536;8.500;2023-03-24T08:55:47;13.60;1.00
38241;DHT22;24037;49.536;8.500;2023-03-24T08:58:18;13.60;1.00
38241;DHT22;24037;49.536;8.500;2023-03-24T09:00:45;13.60;1.00
38241;DHT22;24037;49.536;8.500;2023-03-24T09:03:14;13.60;1.00
38241;DHT22;24037;49.536;8.500;2023-03-24T09:05:46;13.60;1.00
38241;DHT22;24037;49.536;8.500;2023-03-24T09:08:13;13.60;1.00
38241;DHT22;24037;49.536;8.500;2023-03-24T09:10:40;13.50;1.00
38241;DHT22;24037;49.536;8.500;2023-03-24T09:13:07;13.60;1.00
38241;DHT22;24037;49.536;8.500;2023-03-24T09:15:33;13.60;1.00
38241;DHT22;24037;49.536;8.500;2023-03-24T09:18:00;13.60;1.00
38241;DHT22;24037;49.536;8.500;2023-03-24T09:20:26;13.70;1.00
38241;DHT22;24037;49.536;8.500;2023-03-24T09:22:52;13.70;1.00
38241;DHT22;24037;49.536;8.500;2023-03-24T09:25:20;13.70;1.00
38241;DHT22;24037;49.536;8.500;2023-03-24T09:27:49;13.70;1.00
38241;DHT22;24037;49.536;8.500;2023-03-24T09:30:17;13.70;1.00
38241;DHT22;24037;49.536;8.500;2023-03-24T09:32:44;13.60;1.00
38241;DHT22;24037;49.536;8.500;2023-03-24T09:35:10;13.70;1.00
38241;DHT22;24037;49.536;8.500;2023-03-24T09:37:39;13.70;1.00
38241;DHT22;24037;49.536;8.500;2023-03-24T09:40:06;13.70;1.00
38241;DHT22;24037;49.536;8.500;2023-03-24T09:42:36;13.70;1.00
38241;DHT22;24037;49.536;8.500;2023-03-24T09:45:11;13.80;1.00
38241;DHT22;24037;49.536;8.500;2023-03-24T09:47:55;13.70;1.00
38241;DHT22;24037;49.536;8.500;2023-03-24T09:50:29;13.70;1.00
38241;DHT22;24037;49.536;8.500;2023-03-24T09:53:25;13.80;1.00
38241;DHT22;24037;49.536;8.500;2023-03-24T09:55:52;13.80;1.00
38241;DHT22;24037;49.536;8.500;2023-03-24T09:58:19;13.80;1.00
38241;DHT22;24037;49.536;8.500;2023-03-24T10:00:46;13.80;1.00
38241;DHT22;24037;49.536;8.500;2023-03-24T10:03:19;13.80;1.00
38241;DHT22;24037;49.536;8.500;2023-03-24T10:05:57;13.80;1.00
38241;DHT22;24037;49.536;8.500;2023-03-24T10:08:35;13.80;1.00
38241;DHT22;24037;49.536;8.500;2023-03-24T10:11:19;13.80;1.00
38241;DHT22;24037;49.536;8.500;2023-03-24T10:14:33;14.00;1.00
38241;DHT22;24037;49.536;8.500;2023-03-24T10:23:06;14.40;1.00
38241;DHT22;24037;49.536;8.500;2023-03-24T10:25:59;14.50;1.00
38241;DHT22;24037;49.536;8.500;2023-03-24T10:31:14;14.30;1.00
38241;DHT22;24037;49.536;8.500;2023-03-24T10:33:43;14.20;1.00
38241;DHT22;24037;49.536;8.500;2023-03-24T10:36:16;14.20;1.00
38241;DHT22;24037;49.536;8.500;2023-03-24T10:38:46;14.20;1.00
38241;DHT22;24037;49.536;8.500;2023-03-24T10:41:22;14.20;1.00
38241;DHT22;24037;49.536;8.500;2023-03-24T10:43:50;14.20;1.00
38241;DHT22;24037;49.536;8.500;2023-03-24T10:46:24;14.20;1.00
38241;DHT22;24037;49.536;8.500;2023-03-24T10:48:54;14.20;1.00
38241;DHT22;24037;49.536;8.500;2023-03-24T10:51:32;14.20;1.00
38241;DHT22;24037;49.536;8.500;2023-03-24T10:54:29;14.20;1.00
38241;DHT22;24037;49.536;8.500;2023-03-24T10:59:32;13.90;1.00
38241;DHT22;24037;49.536;8.500;2023-03-24T11:02:15;13.60;1.00
38241;DHT22;24037;49.536;8.500;2023-03-24T11:05:15;13.10;1.00
38241;DHT22;24037;49.536;8.500;2023-03-24T11:07:45;12.60;1.00
38241;DHT22;24037;49.536;8.500;2023-03-24T11:10:17;12.40;1.00
38241;DHT22;24037;49.536;8.500;2023-03-24T11:15:19;12.40;1.00
38241;DHT22;24037;49.536;8.500;2023-03-24T11:17:51;12.60;1.00
38241;DHT22;24037;49.536;8.500;2023-03-24T11:20:38;12.80;1.00
38241;DHT22;24037;49.536;8.500;2023-03-24T11:25:45;13.00;1.00
38241;DHT22;24037;49.536;8.500;2023-03-24T11:28:18;13.00;1.00
38241;DHT22;24037;49.536;8.500;2023-03-24T11:30:50;13.20;1.00
38241;DHT22;24037;49.536;8.500;2023-03-24T11:35:48;13.30;1.00
38241;DHT22;24037;49.536;8.500;2023-03-24T11:38:16;13.30;1.00
38241;DHT22;24037;49.536;8.500;2023-03-24T11:40:54;13.30;1.00
38241;DHT22;24037;49.536;8.500;2023-03-24T11:43:24;13.20;1.00
38241;DHT22;24037;49.536;8.500;2023-03-24T11:46:09;13.30;1.00
38241;DHT22;24037;49.536;8.500;2023-03-24T11:48:47;13.30;1.00
38241;DHT22;24037;49.536;8.500;2023-03-24T11:51:33;13.30;1.00
38241;DHT22;24037;49.536;8.500;2023-03-24T11:54:03;13.30;1.00
38241;DHT22;24037;49.536;8.500;2023-03-24T11:56:39;13.40;1.00
38241;DHT22;24037;49.536;8.500;2023-03-24T11:59:41;13.40;1.00
38241;DHT22;24037;49.536;8.500;2023-03-24T12:05:19;13.50;1.00
38241;DHT22;24037;49.536;8.500;2023-03-24T12:16:36;14.30;1.00
38241;DHT22;24037;49.536;8.500;2023-03-24T12:19:36;14.40;1.00
38241;DHT22;24037;49.536;8.500;2023-03-24T12:28:15;14.40;1.00
38241;DHT22;24037;49.536;8.500;2023-03-24T12:31:53;14.60;1.00
38241;DHT22;24037;49.536;8.500;2023-03-24T12:36:38;15.20;99.90
38241;DHT22;24037;49.536;8.500;2023-03-24T12:39:29;15.50;99.90
38241;DHT22;24037;49.536;8.500;2023-03-24T12:58:16;15.50;99.90
38241;DHT22;24037;49.536;8.500;2023-03-24T13:01:00;15.40;99.90
38241;DHT22;24037;49.536;8.500;2023-03-24T13:03:42;15.50;99.90
38241;DHT22;24037;49.536;8.500;2023-03-24T13:06:56;15.80;99.90
38241;DHT22;24037;49.536;8.500;2023-03-24T13:17:29;16.60;99.90
38241;DHT22;24037;49.536;8.500;2023-03-24T13:20:01;16.50;99.90
38241;DHT22;24037;49.536;8.500;2023-03-24T13:22:33;16.60;99.90
38241;DHT22;24037;49.536;8.500;2023-03-24T13:25:11;16.70;99.90
38241;DHT22;24037;49.536;8.500;2023-03-24T13:27:46;16.80;99.90
38241;DHT22;24037;49.536;8.500;2023-03-24T13:30:34;16.90;99.90
38241;DHT22;24037;49.536;8.500;2023-03-24T13:33:11;17.10;99.90
38241;DHT22;24037;49.536;8.500;2023-03-24T13:39:00;16.60;99.90
38241;DHT22;24037;49.536;8.500;2023-03-24T13:41:32;16.60;99.90
38241;DHT22;24037;49.536;8.500;2023-03-24T13:44:08;16.50;99.90
38241;DHT22;24037;49.536;8.500;2023-03-24T13:46:41;16.50;99.90
38241;DHT22;24037;49.536;8.500;2023-03-24T13:49:13;16.60;99.90
38241;DHT22;24037;49.536;8.500;2023-03-24T13:51:45;16.40;99.90
38241;DHT22;24037;49.536;8.500;2023-03-24T13:56:47;16.60;99.90
38241;DHT22;24037;49.536;8.500;2023-03-24T13:59:28;16.40;99.90
38241;DHT22;24037;49.536;8.500;2023-03-24T14:04:46;17.00;99.90
38241;DHT22;24037;49.536;8.500;2023-03-24T14:07:30;17.40;99.90
38241;DHT22;24037;49.536;8.500;2023-03-24T14:10:00;17.70;99.90
38241;DHT22;24037;49.536;8.500;2023-03-24T14:12:26;17.80;99.90
38241;DHT22;24037;49.536;8.500;2023-03-24T14:17:42;17.80;99.90
38241;DHT22;24037;49.536;8.500;2023-03-24T14:20:10;17.10;99.90
38241;DHT22;24037;49.536;8.500;2023-03-24T14:22:46;16.90;99.90
38241;DHT22;24037;49.536;8.500;2023-03-24T14:27:41;16.80;99.90
38241;DHT22;24037;49.536;8.500;2023-03-24T14:32:51;16.50;99.90
38241;DHT22;24037;49.536;8.500;2023-03-24T14:38:40;16.50;99.90
38241;DHT22;24037;49.536;8.500;2023-03-24T14:40:49;16.40;99.90
38241;DHT22;24037;49.536;8.500;2023-03-24T14:43:23;16.50;99.90
38241;DHT22;24037;49.536;8.500;2023-03-24T14:46:04;16.90;99.90
38241;DHT22;24037;49.536;8.500;2023-03-24T14:48:34;17.20;99.90
38241;DHT22;24037;49.536;8.500;2023-03-24T14:51:40;17.60;99.90
38241;DHT22;24037;49.536;8.500;2023-03-24T14:54:38;17.50;99.90
38241;DHT22;24037;49.536;8.500;2023-03-24T14:57:07;17.40;99.90
38241;DHT22;24037;49.536;8.500;2023-03-24T14:59:56;17.30;99.90
38241;DHT22;24037;49.536;8.500;2023-03-24T15:02:43;17.10;99.90
38241;DHT22;24037;49.536;8.500;2023-03-24T15:05:14;17.00;99.90
38241;DHT22;24037;49.536;8.500;2023-03-24T15:07:45;16.90;99.90
38241;DHT22;24037;49.536;8.500;2023-03-24T15:10:22;16.70;99.90
38241;DHT22;24037;49.536;8.500;2023-03-24T15:12:49;16.70;99.90
38241;DHT22;24037;49.536;8.500;2023-03-24T15:15:23;16.80;99.90
38241;DHT22;24037;49.536;8.500;2023-03-24T15:17:51;16.80;99.90
38241;DHT22;24037;49.536;8.500;2023-03-24T15:20:32;16.80;99.90
38241;DHT22;24037;49.536;8.500;2023-03-24T15:23:22;16.70;99.90
38241;DHT22;24037;49.536;8.500;2023-03-24T15:25:49;16.90;99.90
38241;DHT22;24037;49.536;8.500;2023-03-24T15:28:22;17.00;99.90
38241;DHT22;24037;49.536;8.500;2023-03-24T15:30:49;17.20;99.90
38241;DHT22;24037;49.536;8.500;2023-03-24T15:33:16;17.60;99.90
38241;DHT22;24037;49.536;8.500;2023-03-24T15:35:44;17.70;99.90
38241;DHT22;24037;49.536;8.500;2023-03-24T15:38:19;17.80;99.90
38241;DHT22;24037;49.536;8.500;2023-03-24T15:40:59;17.90;99.90
38241;DHT22;24037;49.536;8.500;2023-03-24T15:43:27;17.80;99.90
38241;DHT22;24037;49.536;8.500;2023-03-24T15:45:57;17.70;99.90
38241;DHT22;24037;49.536;8.500;2023-03-24T15:48:33;17.60;99.90
38241;DHT22;24037;49.536;8.500;2023-03-24T15:51:03;17.50;99.90
38241;DHT22;24037;49.536;8.500;2023-03-24T15:56:04;17.00;99.90
38241;DHT22;24037;49.536;8.500;2023-03-24T15:58:31;16.80;99.90
38241;DHT22;24037;49.536;8.500;2023-03-24T16:01:01;17.00;99.90
38241;DHT22;24037;49.536;8.500;2023-03-24T16:03:31;17.10;99.90
38241;DHT22;24037;49.536;8.500;2023-03-24T16:05:59;17.10;99.90
38241;DHT22;24037;49.536;8.500;2023-03-24T16:08:35;17.00;99.90
38241;DHT22;24037;49.536;8.500;2023-03-24T16:11:08;16.80;99.90
38241;DHT22;24037;49.536;8.500;2023-03-24T16:13:40;16.70;99.90
38241;DHT22;24037;49.536;8.500;2023-03-24T16:18:40;16.50;99.90
38241;DHT22;24037;49.536;8.500;2023-03-24T16:23:43;16.70;99.90
38241;DHT22;24037;49.536;8.500;2023-03-24T16:26:20;16.70;99.90
38241;DHT22;24037;49.536;8.500;2023-03-24T16:28:47;16.60;99.90
38241;DHT22;24037;49.536;8.500;2023-03-24T16:31:28;16.40;99.90
38241;DHT22;24037;49.536;8.500;2023-03-24T16:33:56;16.30;99.90
38241;DHT22;24037;49.536;8.500;2023-03-24T16:36:23;16.20;99.90
38241;DHT22;24037;49.536;8.500;2023-03-24T16:38:52;16.20;99.90
38241;DHT22;24037;49.536;8.500;2023-03-24T16:41:19;16.10;99.90
38241;DHT22;24037;49.536;8.500;2023-03-24T16:43:45;16.10;99.90
38241;DHT22;24037;49.536;8.500;2023-03-24T16:46:17;16.00;99.90
38241;DHT22;24037;49.536;8.500;2023-03-24T16:48:45;15.90;99.90
38241;DHT22;24037;49.536;8.500;2023-03-24T16:51:17;15.90;99.90
38241;DHT22;24037;49.536;8.500;2023-03-24T16:53:44;15.90;99.90
38241;DHT22;24037;49.536;8.500;2023-03-24T16:56:21;15.90;99.90
38241;DHT22;24037;49.536;8.500;2023-03-24T16:58:48;15.90;99.90
38241;DHT22;24037;49.536;8.500;2023-03-24T17:01:26;15.90;99.90
38241;DHT22;24037;49.536;8.500;2023-03-24T17:03:56;15.90;99.90
38241;DHT22;24037;49.536;8.500;2023-03-24T17:06:24;16.00;99.90
38241;DHT22;24037;49.536;8.500;2023-03-24T17:08:50;15.90;99.90
38241;DHT22;24037;49.536;8.500;2023-03-24T17:11:22;15.90;99.90
38241;DHT22;24037;49.536;8.500;2023-03-24T17:13:50;15.90;99.90
38241;DHT22;24037;49.536;8.500;2023-03-24T17:16:16;15.80;99.90
38241;DHT22;24037;49.536;8.500;2023-03-24T17:18:43;15.80;99.90
38241;DHT22;24037;49.536;8.500;2023-03-24T17:21:14;15.70;99.90
38241;DHT22;24037;49.536;8.500;2023-03-24T17:23:42;15.60;99.90
38241;DHT22;24037;49.536;8.500;2023-03-24T17:26:11;15.50;99.90
38241;DHT22;24037;49.536;8.500;2023-03-24T17:28:38;15.40;99.90
38241;DHT22;24037;49.536;8.500;2023-03-24T17:31:05;15.40;99.90
38241;DHT22;24037;49.536;8.500;2023-03-24T17:33:31;15.40;99.90
38241;DHT22;24037;49.536;8.500;2023-03-24T17:36:00;15.40;99.90
38241;DHT22;24037;49.536;8.500;2023-03-24T17:38:26;15.30;99.90
38241;DHT22;24037;49.536;8.500;2023-03-24T17:41:03;15.30;99.90
38241;DHT22;24037;49.536;8.500;2023-03-24T17:43:30;15.30;99.90
38241;DHT22;24037;49.536;8.500;2023-03-24T17:45:59;15.20;99.90
38241;DHT22;24037;49.536;8.500;2023-03-24T17:48:26;15.20;99.90
38241;DHT22;24037;49.536;8.500;2023-03-24T17:50:53;15.20;99.90
38241;DHT22;24037;49.536;8.500;2023-03-24T17:53:23;15.10;99.90
38241;DHT22;24037;49.536;8.500;2023-03-24T17:56:02;15.00;99.90
38241;DHT22;24037;49.536;8.500;2023-03-24T17:58:33;15.00;99.90
38241;DHT22;24037;49.536;8.500;2023-03-24T18:01:01;14.90;99.90
38241;DHT22;24037;49.536;8.500;2023-03-24T18:03:33;14.90;99.90
38241;DHT22;24037;49.536;8.500;2023-03-24T18:06:08;14.80;99.90
38241;DHT22;24037;49.536;8.500;2023-03-24T18:08:35;14.60;99.90
38241;DHT22;24037;49.536;8.500;2023-03-24T18:11:07;14.60;99.90
38241;DHT22;24037;49.536;8.500;2023-03-24T18:13:33;14.50;99.90
38241;DHT22;24037;49.536;8.500;2023-03-24T18:16:03;14.50;99.90
38241;DHT22;24037;49.536;8.500;2023-03-24T18:18:32;14.30;99.90
38241;DHT22;24037;49.536;8.500;2023-03-24T18:20:58;14.20;99.90
38241;DHT22;24037;49.536;8.500;2023-03-24T18:23:25;14.10;99.90
38241;DHT22;24037;49.536;8.500;2023-03-24T18:25:58;14.00;99.90
38241;DHT22;24037;49.536;8.500;2023-03-24T18:28:26;14.00;99.90
38241;DHT22;24037;49.536;8.500;2023-03-24T18:30:52;13.80;99.90
38241;DHT22;24037;49.536;8.500;2023-03-24T18:33:18;13.70;99.90
38241;DHT22;24037;49.536;8.500;2023-03-24T18:35:53;13.60;99.90
38241;DHT22;24037;49.536;8.500;2023-03-24T18:38:20;13.60;99.90